Time;durP1;ratioP1;P1;durP2;ratioP2;P2;SDS_P1;SDS_P2;PMS_P1;PMS_P2;Temp;Humidity;BMP_temperature;BMP_pressure;BME280_temperature;BME280_humidity;BME280_pressure;Samples;Min_cycle;Max_cycle;Signal;HPM_P1;HPM_P2
2023/05/21 00:00:11;;;;;;;;;;;13.90;99.90;;;;;;4990098;28;20097;-82
2023/05/21 00:02:37;;;;;;;;;;;13.80;99.90;;;;;;4978509;28;20190;-82
2023/05/21 00:05:03;;;;;;;;;;;13.90;99.90;;;;;;4996608;28;19897;-82
2023/05/21 00:07:30;;;;;;;;;;;13.80;99.90;;;;;;4995696;28;19917;-82
2023/05/21 00:09:56;;;;;;;;;;;13.70;99.90;;;;;;4997993;28;19916;-81
2023/05/21 00:12:21;;;;;;;;;;;13.70;99.90;;;;;;4999908;28;19902;-82
2023/05/21 00:14:52;;;;;;;;;;;13.70;99.90;;;;;;5000542;28;19902;-83
2023/05/21 00:17:17;;;;;;;;;;;13.70;99.90;;;;;;5000734;28;19902;-81
2023/05/21 00:19:44;;;;;;;;;;;13.60;99.90;;;;;;4982395;28;20004;-82
2023/05/21 00:22:09;;;;;;;;;;;13.60;99.90;;;;;;4998436;28;19925;-81
2023/05/21 00:24:35;;;;;;;;;;;13.40;99.90;;;;;;4997993;28;19913;-81
2023/05/21 00:27:01;;;;;;;;;;;13.50;99.90;;;;;;4982714;28;19905;-82
2023/05/21 00:29:29;;;;;;;;;;;13.50;99.90;;;;;;4998766;28;19968;-82
2023/05/21 00:32:01;;;;;;;;;;;13.50;99.90;;;;;;4998583;28;19933;-81
2023/05/21 00:34:28;;;;;;;;;;;13.50;99.90;;;;;;4999652;28;19917;-82
2023/05/21 00:36:54;;;;;;;;;;;13.40;99.90;;;;;;4999138;28;19902;-82
2023/05/21 00:39:21;;;;;;;;;;;13.40;99.90;;;;;;5016168;28;19913;-81
2023/05/21 00:41:47;;;;;;;;;;;13.50;99.90;;;;;;4999103;28;19972;-81
2023/05/21 00:44:15;;;;;;;;;;;13.40;99.90;;;;;;5015005;28;19901;-82
2023/05/21 00:46:43;;;;;;;;;;;13.40;99.90;;;;;;4996846;28;19905;-82
2023/05/21 00:49:09;;;;;;;;;;;13.40;99.90;;;;;;4997002;28;19961;-82
2023/05/21 00:51:36;;;;;;;;;;;13.40;99.90;;;;;;4997039;28;19902;-82
2023/05/21 00:54:07;;;;;;;;;;;13.30;99.90;;;;;;5013910;28;19912;-82
2023/05/21 00:56:34;;;;;;;;;;;13.40;99.90;;;;;;4999700;28;19981;-82
2023/05/21 00:59:04;;;;;;;;;;;;;;;;;;5001316;28;19914;-82
2023/05/21 01:01:41;;;;;;;;;;;13.30;99.90;;;;;;5000439;28;19956;-82
2023/05/21 01:04:08;;;;;;;;;;;13.30;99.90;;;;;;5007350;28;19917;-82
2023/05/21 01:06:52;;;;;;;;;;;13.30;99.90;;;;;;5018556;28;19969;-83
2023/05/21 01:09:27;;;;;;;;;;;13.20;99.90;;;;;;4986802;28;19936;-82
2023/05/21 01:11:56;;;;;;;;;;;13.20;99.90;;;;;;5017334;28;19902;-82
2023/05/21 01:14:30;;;;;;;;;;;13.20;99.90;;;;;;5001286;28;19933;-81
2023/05/21 01:17:09;;;;;;;;;;;13.20;99.90;;;;;;5014898;28;19906;-82
2023/05/21 01:19:34;;;;;;;;;;;13.10;99.90;;;;;;4997274;28;19913;-82
2023/05/21 01:28:20;;;;;;;;;;;13.10;99.90;;;;;;5015713;28;19909;-83
2023/05/21 01:31:19;;;;;;;;;;;13.10;99.90;;;;;;5016544;28;19973;-83
2023/05/21 01:33:53;;;;;;;;;;;13.10;99.90;;;;;;4988577;28;19898;-82
2023/05/21 01:36:25;;;;;;;;;;;13.10;99.90;;;;;;5015933;28;19909;-82
2023/05/21 01:39:37;;;;;;;;;;;13.10;99.90;;;;;;5018838;28;19913;-82
2023/05/21 01:45:45;;;;;;;;;;;13.00;99.90;;;;;;5018622;28;19933;-82
2023/05/21 01:48:44;;;;;;;;;;;13.10;99.90;;;;;;5005962;28;19929;-83
2023/05/21 01:51:44;;;;;;;;;;;13.10;99.90;;;;;;4959930;28;19902;-83
2023/05/21 01:57:54;;;;;;;;;;;13.10;99.90;;;;;;4955128;29;19922;-83
2023/05/21 02:03:49;;;;;;;;;;;13.10;99.90;;;;;;4956881;29;19918;-81
2023/05/21 02:06:16;;;;;;;;;;;13.10;99.90;;;;;;4941230;29;19907;-82
2023/05/21 02:08:49;;;;;;;;;;;13.00;99.90;;;;;;4956505;29;19897;-82
2023/05/21 02:11:21;;;;;;;;;;;13.00;99.90;;;;;;4926791;29;19911;-83
2023/05/21 02:13:56;;;;;;;;;;;13.00;99.90;;;;;;4936871;29;19910;-82
2023/05/21 02:16:23;;;;;;;;;;;13.00;99.90;;;;;;4944340;29;19907;-82
2023/05/21 02:18:59;;;;;;;;;;;12.90;99.90;;;;;;4960612;29;19902;-82
2023/05/21 02:21:25;;;;;;;;;;;12.90;99.90;;;;;;4961348;28;19913;-82
2023/05/21 02:23:53;;;;;;;;;;;12.80;99.90;;;;;;5018478;28;19909;-81
2023/05/21 02:26:21;;;;;;;;;;;12.80;99.90;;;;;;5004065;28;19961;-81
2023/05/21 02:28:58;;;;;;;;;;;12.80;99.90;;;;;;5002285;28;19953;-81
2023/05/21 02:31:34;;;;;;;;;;;12.70;99.90;;;;;;5003567;28;20013;-81
2023/05/21 02:34:05;;;;;;;;;;;12.70;99.90;;;;;;5012206;28;19911;-82
2023/05/21 02:37:18;;;;;;;;;;;12.50;99.90;;;;;;5020517;28;19916;-82
2023/05/21 02:40:11;;;;;;;;;;;12.50;99.90;;;;;;4922089;29;19903;-82
2023/05/21 02:42:59;;;;;;;;;;;12.50;99.90;;;;;;4907707;29;19977;-82
2023/05/21 02:45:27;;;;;;;;;;;12.50;99.90;;;;;;4922963;29;19935;-82
2023/05/21 02:47:55;;;;;;;;;;;12.40;99.90;;;;;;4922154;29;19939;-82
2023/05/21 02:50:31;;;;;;;;;;;12.40;99.90;;;;;;4922115;29;19963;-82
2023/05/21 02:53:00;;;;;;;;;;;12.30;99.90;;;;;;4904657;29;20244;-81
2023/05/21 02:55:26;;;;;;;;;;;12.20;99.90;;;;;;4922821;29;19904;-82
2023/05/21 02:58:00;;;;;;;;;;;12.20;99.90;;;;;;4906811;29;19940;-81
2023/05/21 03:00:37;;;;;;;;;;;12.10;99.90;;;;;;4921951;29;19924;-83
2023/05/21 03:03:02;;;;;;;;;;;11.90;99.90;;;;;;4920110;29;19911;-82
2023/05/21 03:05:50;;;;;;;;;;;11.90;99.90;;;;;;4918224;29;19908;-82
2023/05/21 03:08:22;;;;;;;;;;;11.90;99.90;;;;;;4908940;29;19935;-82
2023/05/21 03:10:54;;;;;;;;;;;11.90;99.90;;;;;;5000083;28;19905;-83
2023/05/21 03:13:27;;;;;;;;;;;11.90;99.90;;;;;;4985522;28;19901;-81
2023/05/21 03:15:59;;;;;;;;;;;11.90;99.90;;;;;;4993968;28;19896;-82
2023/05/21 03:18:26;;;;;;;;;;;11.90;99.90;;;;;;4956262;28;19961;-82
2023/05/21 03:21:06;;;;;;;;;;;11.80;99.90;;;;;;5018142;28;19920;-82
2023/05/21 03:23:51;;;;;;;;;;;11.80;99.90;;;;;;5003320;28;19897;-82
2023/05/21 03:26:21;;;;;;;;;;;11.70;99.90;;;;;;5018049;28;19897;-82
2023/05/21 03:28:52;;;;;;;;;;;11.70;99.90;;;;;;5002562;28;19913;-82
2023/05/21 03:31:27;;;;;;;;;;;11.70;99.90;;;;;;5001981;28;19890;-82
2023/05/21 03:34:07;;;;;;;;;;;11.70;99.90;;;;;;5014697;28;19901;-82
2023/05/21 03:36:35;;;;;;;;;;;11.70;99.90;;;;;;4986920;28;19906;-82
2023/05/21 03:39:11;;;;;;;;;;;11.80;99.90;;;;;;4971862;28;19914;-83
2023/05/21 03:42:13;;;;;;;;;;;11.70;99.90;;;;;;4939787;28;19905;-82
2023/05/21 03:45:31;;;;;;;;;;;11.70;99.90;;;;;;4999285;28;19906;-84
2023/05/21 03:48:17;;;;;;;;;;;11.70;99.90;;;;;;4980751;28;19914;-83
2023/05/21 03:51:28;;;;;;;;;;;11.60;99.90;;;;;;4932803;28;19902;-83
2023/05/21 03:54:18;;;;;;;;;;;11.60;99.90;;;;;;4959892;29;20106;-83
2023/05/21 04:06:26;;;;;;;;;;;11.70;99.90;;;;;;4980806;28;19941;-83
2023/05/21 04:40:33;;;;;;;;;;;11.90;99.90;;;;;;5063497;23;19902;-83
2023/05/21 04:46:44;;;;;;;;;;;11.80;99.90;;;;;;4960846;29;19918;-82
2023/05/21 04:53:03;;;;;;;;;;;11.90;99.90;;;;;;4960699;29;19918;-83
2023/05/21 05:15:43;;;;;;;;;;;13.30;99.90;;;;;;4993758;28;19930;-83
2023/05/21 05:18:10;;;;;;;;;;;13.50;99.90;;;;;;4982865;28;20351;-83
2023/05/21 05:32:31;;;;;;;;;;;14.00;99.90;;;;;;5011687;28;19932;-84
2023/05/21 05:34:57;;;;;;;;;;;14.10;99.90;;;;;;4996043;28;20206;-85
2023/05/21 05:37:23;;;;;;;;;;;14.20;99.90;;;;;;4987259;28;19901;-85
2023/05/21 05:39:48;;;;;;;;;;;14.30;99.90;;;;;;4985645;28;19940;-84
2023/05/21 05:42:14;;;;;;;;;;;14.40;99.90;;;;;;4985408;28;19902;-85
2023/05/21 05:44:40;;;;;;;;;;;14.60;99.90;;;;;;5001900;28;20257;-84
2023/05/21 05:47:09;;;;;;;;;;;14.80;99.90;;;;;;4983949;28;19941;-84
2023/05/21 05:49:35;;;;;;;;;;;15.00;99.90;;;;;;4987573;28;19980;-83
2023/05/21 05:52:01;;;;;;;;;;;15.00;99.90;;;;;;4987247;28;19920;-84
2023/05/21 05:54:26;;;;;;;;;;;15.20;99.90;;;;;;4986871;28;19905;-84
2023/05/21 05:56:52;;;;;;;;;;;15.40;99.90;;;;;;4984404;28;19905;-84
2023/05/21 05:59:17;;;;;;;;;;;15.40;99.90;;;;;;4988939;28;19909;-84
2023/05/21 06:01:43;;;;;;;;;;;15.50;99.90;;;;;;5000123;28;19905;-84
2023/05/21 06:04:09;;;;;;;;;;;15.60;99.90;;;;;;5007207;28;20240;-84
2023/05/21 06:06:35;;;;;;;;;;;15.60;99.90;;;;;;5010333;28;19901;-85
2023/05/21 06:09:03;;;;;;;;;;;15.80;99.90;;;;;;5023799;28;19909;-88
2023/05/21 06:11:28;;;;;;;;;;;15.90;99.90;;;;;;5005860;28;19956;-84
2023/05/21 06:26:05;;;;;;;;;;;16.70;99.90;;;;;;5017151;28;19953;-82
2023/05/21 06:32:08;;;;;;;;;;;16.80;99.90;;;;;;5021560;28;19908;-82
2023/05/21 06:38:11;;;;;;;;;;;16.90;99.90;;;;;;4956494;28;19955;-83
2023/05/21 06:51:41;;;;;;;;;;;17.00;99.90;;;;;;5769112;23;19926;-84
2023/05/21 06:59:47;;;;;;;;;;;17.00;99.90;;;;;;5004176;23;19986;-88
2023/05/21 07:02:12;;;;;;;;;;;17.00;99.90;;;;;;4944376;29;20178;-86
2023/05/21 07:04:55;;;;;;;;;;;17.20;99.90;;;;;;4948169;29;19966;-83
2023/05/21 07:07:21;;;;;;;;;;;17.70;99.90;;;;;;4960608;29;19970;-82
2023/05/21 07:09:46;;;;;;;;;;;18.30;99.90;;;;;;4958412;29;19930;-82
2023/05/21 07:12:12;;;;;;;;;;;18.40;99.90;;;;;;4973791;29;19926;-85
2023/05/21 07:14:38;;;;;;;;;;;18.60;99.90;;;;;;4949945;28;19977;-86
2023/05/21 07:17:04;;;;;;;;;;;19.00;99.90;;;;;;4940607;29;19906;-84
2023/05/21 07:22:06;;;;;;;;;;;19.40;99.90;;;;;;5147429;23;20198;-82
2023/05/21 07:24:37;;;;;;;;;;;19.50;99.90;;;;;;5014476;28;19917;-83
2023/05/21 07:27:03;;;;;;;;;;;19.40;99.90;;;;;;5010708;28;19944;-82
2023/05/21 07:29:29;;;;;;;;;;;19.30;99.90;;;;;;5001094;28;19921;-86
2023/05/21 07:31:54;;;;;;;;;;;20.10;99.90;;;;;;5003896;28;19909;-83
2023/05/21 07:34:20;;;;;;;;;;;20.70;99.90;;;;;;5005438;28;20215;-80
2023/05/21 07:36:45;;;;;;;;;;;20.50;99.90;;;;;;5006970;28;19901;-80
2023/05/21 07:39:11;;;;;;;;;;;19.60;99.90;;;;;;5021868;28;19905;-80
2023/05/21 07:41:37;;;;;;;;;;;19.10;99.90;;;;;;5006307;28;19929;-80
2023/05/21 07:44:02;;;;;;;;;;;18.10;99.90;;;;;;5005886;28;19920;-80
2023/05/21 07:46:28;;;;;;;;;;;18.20;99.90;;;;;;5004934;28;20213;-80
2023/05/21 07:48:54;;;;;;;;;;;18.30;99.90;;;;;;5003007;28;20177;-78
2023/05/21 07:51:20;;;;;;;;;;;18.10;99.90;;;;;;5004437;28;19909;-78
2023/05/21 07:53:46;;;;;;;;;;;18.20;99.90;;;;;;5003017;28;19924;-79
2023/05/21 07:56:12;;;;;;;;;;;18.20;99.90;;;;;;5005194;28;19968;-81
2023/05/21 07:58:39;;;;;;;;;;;18.40;99.90;;;;;;5017271;28;19909;-78
2023/05/21 08:01:24;;;;;;;;;;;18.20;99.90;;;;;;5026669;28;19912;-80
2023/05/21 08:03:51;;;;;;;;;;;18.20;99.90;;;;;;5013768;28;19947;-81
2023/05/21 08:06:16;;;;;;;;;;;18.20;99.90;;;;;;5010517;28;19905;-79
2023/05/21 08:08:42;;;;;;;;;;;18.20;99.90;;;;;;5001655;28;19913;-79
2023/05/21 08:11:07;;;;;;;;;;;18.40;99.90;;;;;;4998690;28;19913;-79
2023/05/21 08:13:33;;;;;;;;;;;18.30;99.90;;;;;;5017925;28;20328;-78
2023/05/21 08:15:58;;;;;;;;;;;18.50;99.90;;;;;;5005597;28;20288;-79
2023/05/21 08:18:24;;;;;;;;;;;18.60;99.90;;;;;;5023824;28;19976;-78
2023/05/21 08:20:50;;;;;;;;;;;18.70;99.90;;;;;;5005779;28;19985;-78
2023/05/21 08:23:16;;;;;;;;;;;18.80;99.90;;;;;;5008889;28;19901;-78
2023/05/21 08:25:41;;;;;;;;;;;19.40;99.90;;;;;;5020681;28;20121;-78
2023/05/21 08:28:07;;;;;;;;;;;20.20;99.90;;;;;;5023329;28;19910;-82
2023/05/21 08:30:32;;;;;;;;;;;20.20;99.90;;;;;;5012091;28;19905;-78
2023/05/21 08:33:01;;;;;;;;;;;19.90;99.90;;;;;;5011759;28;19901;-79
2023/05/21 08:35:27;;;;;;;;;;;19.50;99.90;;;;;;5024199;28;19916;-80
2023/05/21 08:37:52;;;;;;;;;;;19.80;99.90;;;;;;5001473;28;19901;-79
2023/05/21 08:40:18;;;;;;;;;;;19.80;99.90;;;;;;5002911;28;19901;-78
2023/05/21 08:42:44;;;;;;;;;;;19.40;99.90;;;;;;5019596;28;19908;-80
2023/05/21 08:45:11;;;;;;;;;;;19.70;99.90;;;;;;5001173;28;19901;-79
2023/05/21 08:47:40;;;;;;;;;;;19.60;99.90;;;;;;5018955;28;19901;-78
2023/05/21 08:50:26;;;;;;;;;;;19.40;99.90;;;;;;5017864;28;19956;-79
2023/05/21 08:52:51;;;;;;;;;;;19.70;99.90;;;;;;5019010;28;19906;-78
2023/05/21 08:55:17;;;;;;;;;;;19.80;99.90;;;;;;5023185;28;19989;-78
2023/05/21 08:57:43;;;;;;;;;;;20.00;99.90;;;;;;5021363;28;20136;-80
2023/05/21 09:00:09;;;;;;;;;;;20.30;99.90;;;;;;5004321;28;19917;-81
2023/05/21 09:02:39;;;;;;;;;;;20.50;99.90;;;;;;4999613;28;19924;-78
2023/05/21 09:05:08;;;;;;;;;;;20.50;99.90;;;;;;5022124;28;19905;-79
2023/05/21 09:07:54;;;;;;;;;;;20.80;99.90;;;;;;5002572;28;19968;-78
2023/05/21 09:10:22;;;;;;;;;;;20.70;99.90;;;;;;4992270;28;20392;-77
2023/05/21 09:12:48;;;;;;;;;;;21.30;99.90;;;;;;5011047;28;19909;-76
2023/05/21 09:15:14;;;;;;;;;;;21.30;99.90;;;;;;5019202;28;19906;-79
2023/05/21 09:17:39;;;;;;;;;;;21.20;99.90;;;;;;5019992;28;19910;-78
2023/05/21 09:20:11;;;;;;;;;;;21.50;99.90;;;;;;5001431;28;19909;-80
2023/05/21 09:22:40;;;;;;;;;;;22.20;98.30;;;;;;4997405;28;20267;-78
2023/05/21 09:25:07;;;;;;;;;;;23.00;93.90;;;;;;4996024;28;19936;-79
2023/05/21 09:27:33;;;;;;;;;;;23.30;92.40;;;;;;5019714;28;19901;-83
2023/05/21 09:29:59;;;;;;;;;;;23.00;91.60;;;;;;5022431;28;19995;-82
2023/05/21 09:32:24;;;;;;;;;;;22.70;92.10;;;;;;5002729;28;20125;-79
2023/05/21 09:34:50;;;;;;;;;;;23.00;90.60;;;;;;5020526;28;19910;-78
2023/05/21 09:37:15;;;;;;;;;;;23.00;91.20;;;;;;5019230;28;19909;-80
2023/05/21 09:39:42;;;;;;;;;;;22.20;91.40;;;;;;5003619;28;19929;-78
2023/05/21 09:42:07;;;;;;;;;;;22.20;91.80;;;;;;5016236;28;19905;-80
2023/05/21 09:44:33;;;;;;;;;;;22.10;92.40;;;;;;5006074;28;19948;-81
2023/05/21 09:47:00;;;;;;;;;;;21.80;93.90;;;;;;4995645;28;19925;-79
2023/05/21 09:49:26;;;;;;;;;;;21.90;93.40;;;;;;5019214;28;19921;-80
2023/05/21 09:51:56;;;;;;;;;;;21.90;93.30;;;;;;5011382;28;19905;-77
2023/05/21 09:54:23;;;;;;;;;;;22.30;97.30;;;;;;4991845;28;19913;-79
2023/05/21 09:56:49;;;;;;;;;;;22.40;91.90;;;;;;4999664;28;19913;-78
2023/05/21 09:59:15;;;;;;;;;;;26.70;92.00;;;;;;5012020;28;19905;-79
2023/05/21 10:01:42;;;;;;;;;;;22.70;90.30;;;;;;4998532;28;19928;-79
2023/05/21 10:04:08;;;;;;;;;;;23.50;90.00;;;;;;5001317;28;19908;-78
2023/05/21 10:06:36;;;;;;;;;;;23.20;89.90;;;;;;4994675;28;19957;-79
2023/05/21 10:09:04;;;;;;;;;;;22.50;91.60;;;;;;4999976;28;20047;-78
2023/05/21 10:11:30;;;;;;;;;;;22.30;92.90;;;;;;5020015;28;19972;-78
2023/05/21 10:14:05;;;;;;;;;;;22.50;93.30;;;;;;5006759;28;19901;-79
2023/05/21 10:16:31;;;;;;;;;;;22.50;90.00;;;;;;5008492;28;20208;-84
2023/05/21 10:18:57;;;;;;;;;;;23.20;89.10;;;;;;4998547;28;19905;-78
2023/05/21 10:21:23;;;;;;;;;;;23.80;87.50;;;;;;4993532;28;19932;-79
2023/05/21 10:23:50;;;;;;;;;;;23.20;87.80;;;;;;5019019;28;19910;-80
2023/05/21 10:26:16;;;;;;;;;;;23.10;90.40;;;;;;5017717;28;19913;-81
2023/05/21 10:28:45;;;;;;;;;;;23.30;90.10;;;;;;5018842;28;20242;-81
2023/05/21 10:31:14;;;;;;;;;;;23.50;88.50;;;;;;5006220;28;19921;-80
2023/05/21 10:33:40;;;;;;;;;;;23.40;89.10;;;;;;5001799;28;19922;-78
2023/05/21 10:36:05;;;;;;;;;;;23.00;90.10;;;;;;5000958;28;19913;-80
2023/05/21 10:38:32;;;;;;;;;;;22.90;91.10;;;;;;5023968;28;19909;-78
2023/05/21 10:40:58;;;;;;;;;;;;;;;;;;5001358;28;19913;-83
2023/05/21 10:43:42;;;;;;;;;;;23.70;83.90;;;;;;4990706;28;19932;-79
2023/05/21 10:46:37;;;;;;;;;;;24.30;80.20;;;;;;5006109;28;19916;-81
2023/05/21 10:49:06;;;;;;;;;;;24.30;80.20;;;;;;4984023;28;20066;-78
2023/05/21 10:51:40;;;;;;;;;;;24.50;83.20;;;;;;5004856;28;19916;-78
2023/05/21 10:54:15;;;;;;;;;;;24.40;80.90;;;;;;5019369;28;20008;-80
2023/05/21 10:56:46;;;;;;;;;;;24.70;81.00;;;;;;5001520;28;19917;-81
2023/05/21 10:59:20;;;;;;;;;;;24.50;82.10;;;;;;5005529;28;20261;-78
2023/05/21 11:01:48;;;;;;;;;;;24.60;79.20;;;;;;5007501;28;19910;-80
2023/05/21 11:04:14;;;;;;;;;;;24.30;79.40;;;;;;5003711;28;19972;-79
2023/05/21 11:06:45;;;;;;;;;;;24.30;81.20;;;;;;5016540;28;19960;-81
2023/05/21 11:09:12;;;;;;;;;;;24.70;79.20;;;;;;4999135;28;19921;-78
2023/05/21 11:11:42;;;;;;;;;;;25.10;77.40;;;;;;5021218;28;19905;-78
2023/05/21 11:14:26;;;;;;;;;;;25.30;77.30;;;;;;4998514;28;20198;-81
2023/05/21 11:16:52;;;;;;;;;;;25.30;77.40;;;;;;4983305;28;19913;-78
2023/05/21 11:19:17;;;;;;;;;;;26.00;74.20;;;;;;4989419;28;19959;-78
2023/05/21 11:21:48;;;;;;;;;;;25.50;75.70;;;;;;5000633;28;19913;-78
2023/05/21 11:24:18;;;;;;;;;;;25.50;75.50;;;;;;5021948;28;19913;-80
2023/05/21 11:26:46;;;;;;;;;;;26.00;73.80;;;;;;5004714;28;20170;-79
2023/05/21 11:29:12;;;;;;;;;;;25.70;73.50;;;;;;5004452;28;19909;-81
2023/05/21 11:31:37;;;;;;;;;;;26.30;71.80;;;;;;5012700;28;19921;-79
2023/05/21 11:34:13;;;;;;;;;;;27.20;68.70;;;;;;5014593;28;20230;-79
2023/05/21 11:36:40;;;;;;;;;;;27.00;68.70;;;;;;4989721;28;19920;-79
2023/05/21 11:39:24;;;;;;;;;;;26.80;67.80;;;;;;5011653;28;20075;-79
2023/05/21 11:41:57;;;;;;;;;;;26.90;66.80;;;;;;5001132;28;19913;-79
2023/05/21 11:44:41;;;;;;;;;;;27.00;66.70;;;;;;5001294;28;20177;-79
2023/05/21 11:47:08;;;;;;;;;;;26.70;67.30;;;;;;4990636;28;19909;-79
2023/05/21 11:49:34;;;;;;;;;;;27.40;66.10;;;;;;4997795;28;19940;-80
2023/05/21 11:52:00;;;;;;;;;;;28.40;64.50;;;;;;4993632;28;19917;-79
2023/05/21 11:54:26;;;;;;;;;;;28.60;66.20;;;;;;4997188;28;19901;-79
2023/05/21 11:56:53;;;;;;;;;;;28.80;63.00;;;;;;4999007;28;19905;-79
2023/05/21 11:59:18;;;;;;;;;;;28.40;61.60;;;;;;4993568;28;20346;-79
2023/05/21 12:01:44;;;;;;;;;;;28.20;62.20;;;;;;4997984;28;19914;-79
2023/05/21 12:04:12;;;;;;;;;;;28.50;61.60;;;;;;5000742;28;20227;-79
2023/05/21 12:06:41;;;;;;;;;;;29.30;61.30;;;;;;5025743;28;19913;-79
2023/05/21 12:09:10;;;;;;;;;;;29.80;59.70;;;;;;5021069;28;19901;-79
2023/05/21 12:11:41;;;;;;;;;;;30.10;58.80;;;;;;5016630;28;19944;-78
2023/05/21 12:14:08;;;;;;;;;;;29.70;60.50;;;;;;5021348;28;19907;-82
2023/05/21 12:16:33;;;;;;;;;;;28.80;62.30;;;;;;5003442;28;20008;-81
2023/05/21 12:18:59;;;;;;;;;;;29.70;60.00;;;;;;5003588;28;20098;-79
2023/05/21 12:21:26;;;;;;;;;;;29.10;59.40;;;;;;5019691;28;19921;-78
2023/05/21 12:23:52;;;;;;;;;;;28.60;61.00;;;;;;5004338;28;19901;-79
2023/05/21 12:26:17;;;;;;;;;;;27.80;61.90;;;;;;5004717;28;19992;-78
2023/05/21 12:28:43;;;;;;;;;;;27.80;62.30;;;;;;5020862;28;19993;-78
2023/05/21 12:31:13;;;;;;;;;;;27.90;61.60;;;;;;5002972;28;19956;-79
2023/05/21 12:33:38;;;;;;;;;;;28.10;61.30;;;;;;5003619;28;19940;-78
2023/05/21 12:36:04;;;;;;;;;;;28.20;61.10;;;;;;5003237;28;19984;-79
2023/05/21 12:38:30;;;;;;;;;;;28.70;60.10;;;;;;5002658;28;19964;-77
2023/05/21 12:41:01;;;;;;;;;;;29.20;59.30;;;;;;5020712;28;19956;-79
2023/05/21 12:43:30;;;;;;;;;;;30.00;61.60;;;;;;5005066;28;20129;-78
2023/05/21 12:45:55;;;;;;;;;;;29.30;58.50;;;;;;5003500;28;19908;-79
2023/05/21 12:48:21;;;;;;;;;;;30.00;56.90;;;;;;4998343;28;19913;-79
2023/05/21 12:50:46;;;;;;;;;;;30.20;60.10;;;;;;5001147;28;19928;-78
2023/05/21 12:53:12;;;;;;;;;;;29.60;57.30;;;;;;5002362;28;19909;-79
2023/05/21 12:55:37;;;;;;;;;;;29.70;58.10;;;;;;5002080;28;19908;-78
2023/05/21 12:58:04;;;;;;;;;;;30.00;57.20;;;;;;5018992;28;19916;-78
2023/05/21 13:00:30;;;;;;;;;;;30.90;55.30;;;;;;5020263;28;19944;-79
2023/05/21 13:02:58;;;;;;;;;;;29.90;56.20;;;;;;5001473;28;19960;-79
2023/05/21 13:05:24;;;;;;;;;;;30.30;56.80;;;;;;4995791;28;20102;-80
2023/05/21 13:07:50;;;;;;;;;;;30.80;54.20;;;;;;5001734;28;19909;-80
2023/05/21 13:10:16;;;;;;;;;;;31.50;56.40;;;;;;5000536;28;19920;-79
2023/05/21 13:12:41;;;;;;;;;;;32.30;53.20;;;;;;5000229;28;19937;-79
2023/05/21 13:15:07;;;;;;;;;;;32.50;53.60;;;;;;5001425;28;20254;-78
2023/05/21 13:17:33;;;;;;;;;;;31.70;53.10;;;;;;5019481;28;19944;-80
2023/05/21 13:20:01;;;;;;;;;;;30.70;51.90;;;;;;5002422;28;19921;-83
2023/05/21 13:22:27;;;;;;;;;;;30.70;52.00;;;;;;5001599;28;20194;-79
2023/05/21 13:24:52;;;;;;;;;;;31.20;53.70;;;;;;5002021;28;19978;-79
2023/05/21 13:27:18;;;;;;;;;;;31.30;51.80;;;;;;5001924;28;19952;-79
2023/05/21 13:29:43;;;;;;;;;;;31.60;52.70;;;;;;5020015;28;19925;-79
2023/05/21 13:32:09;;;;;;;;;;;32.30;52.20;;;;;;4998972;28;20216;-78
2023/05/21 13:34:35;;;;;;;;;;;31.10;53.30;;;;;;4995854;28;19905;-80
2023/05/21 13:37:00;;;;;;;;;;;31.10;52.70;;;;;;5002090;28;19912;-79
2023/05/21 13:39:26;;;;;;;;;;;31.60;52.20;;;;;;5001514;28;20190;-78
2023/05/21 13:41:52;;;;;;;;;;;32.10;51.90;;;;;;5002764;28;20224;-78
2023/05/21 13:44:17;;;;;;;;;;;30.30;49.70;;;;;;5002640;28;19901;-80
2023/05/21 13:46:43;;;;;;;;;;;32.40;54.10;;;;;;5002760;28;19905;-81
2023/05/21 13:49:09;;;;;;;;;;;32.10;52.10;;;;;;5002214;28;19909;-81
2023/05/21 13:51:34;;;;;;;;;;;32.30;51.40;;;;;;5002608;28;19905;-80
2023/05/21 13:54:00;;;;;;;;;;;32.10;50.40;;;;;;5001891;28;19943;-79
2023/05/21 13:56:26;;;;;;;;;;;31.70;49.90;;;;;;5016092;28;19924;-82
2023/05/21 13:58:51;;;;;;;;;;;31.00;49.90;;;;;;5001727;28;19990;-80
2023/05/21 14:01:17;;;;;;;;;;;30.20;51.50;;;;;;5018850;28;19938;-80
2023/05/21 14:03:42;;;;;;;;;;;30.40;52.10;;;;;;5018527;28;19909;-79
2023/05/21 14:06:08;;;;;;;;;;;31.10;51.90;;;;;;4996795;28;19973;-81
2023/05/21 14:08:33;;;;;;;;;;;31.00;49.20;;;;;;5018694;28;19920;-81
2023/05/21 14:10:59;;;;;;;;;;;31.60;50.60;;;;;;5004683;28;19917;-80
2023/05/21 14:13:25;;;;;;;;;;;31.40;52.60;;;;;;5015898;28;20401;-81
2023/05/21 14:15:50;;;;;;;;;;;29.80;55.30;;;;;;4988968;28;19910;-82
2023/05/21 14:18:16;;;;;;;;;;;29.10;57.00;;;;;;4995323;28;20003;-80
2023/05/21 14:20:41;;;;;;;;;;;28.40;58.70;;;;;;4998801;28;20499;-80
2023/05/21 14:23:08;;;;;;;;;;;28.40;57.70;;;;;;4996853;28;19964;-80
2023/05/21 14:25:33;;;;;;;;;;;28.30;57.80;;;;;;5001158;28;19905;-81
2023/05/21 14:27:59;;;;;;;;;;;28.40;57.50;;;;;;4995800;28;20385;-81
2023/05/21 14:30:24;;;;;;;;;;;27.90;56.20;;;;;;4995567;28;19917;-80
2023/05/21 14:32:50;;;;;;;;;;;27.70;58.00;;;;;;4995322;28;19917;-80
2023/05/21 14:35:15;;;;;;;;;;;27.60;58.60;;;;;;5013269;28;19928;-83
2023/05/21 14:37:41;;;;;;;;;;;27.50;56.90;;;;;;4995657;28;19917;-84
2023/05/21 14:40:10;;;;;;;;;;;27.70;57.30;;;;;;4995665;28;20355;-83
2023/05/21 14:42:35;;;;;;;;;;;28.10;55.60;;;;;;4996574;28;19919;-84
2023/05/21 14:45:01;;;;;;;;;;;28.30;55.20;;;;;;5012503;28;20000;-79
2023/05/21 14:47:26;;;;;;;;;;;29.00;55.80;;;;;;5009780;28;19913;-82
2023/05/21 14:49:52;;;;;;;;;;;28.80;54.80;;;;;;4993046;28;19909;-82
2023/05/21 14:52:17;;;;;;;;;;;29.20;54.60;;;;;;4993443;28;19920;-80
2023/05/21 14:54:43;;;;;;;;;;;30.00;53.40;;;;;;4992643;28;20322;-79
2023/05/21 14:57:08;;;;;;;;;;;29.60;54.50;;;;;;5011020;28;19927;-83
2023/05/21 14:59:34;;;;;;;;;;;29.60;52.40;;;;;;5001404;28;20353;-83
2023/05/21 15:02:00;;;;;;;;;;;29.30;52.80;;;;;;4998615;28;20008;-80
2023/05/21 15:04:25;;;;;;;;;;;29.40;53.50;;;;;;4999219;28;20125;-81
2023/05/21 15:06:51;;;;;;;;;;;29.30;52.90;;;;;;5015465;28;19905;-79
2023/05/21 15:09:16;;;;;;;;;;;29.10;53.40;;;;;;4993985;28;19980;-78
2023/05/21 15:11:43;;;;;;;;;;;29.30;55.60;;;;;;4992650;28;20456;-82
2023/05/21 15:14:09;;;;;;;;;;;29.40;53.40;;;;;;4992281;28;19905;-81
2023/05/21 15:16:34;;;;;;;;;;;29.00;54.10;;;;;;4992610;28;19910;-82
2023/05/21 15:19:00;;;;;;;;;;;28.90;54.40;;;;;;4992737;28;19913;-83
2023/05/21 15:21:25;;;;;;;;;;;27.80;57.40;;;;;;4992906;28;19917;-80
2023/05/21 15:23:51;;;;;;;;;;;27.60;58.70;;;;;;4993340;28;20333;-82
2023/05/21 15:26:16;;;;;;;;;;;28.00;58.40;;;;;;4993551;28;19913;-79
2023/05/21 15:28:42;;;;;;;;;;;28.20;57.80;;;;;;4992818;28;19916;-79
2023/05/21 15:31:07;;;;;;;;;;;28.50;56.70;;;;;;5011541;28;19920;-81
2023/05/21 15:33:33;;;;;;;;;;;28.60;54.80;;;;;;4993606;28;20313;-81
2023/05/21 15:36:01;;;;;;;;;;;28.60;55.10;;;;;;4993914;28;20386;-84
2023/05/21 15:38:27;;;;;;;;;;;28.40;51.80;;;;;;4993544;28;20008;-82
2023/05/21 15:40:52;;;;;;;;;;;28.70;52.40;;;;;;4993304;28;20070;-79
2023/05/21 15:43:18;;;;;;;;;;;28.70;53.40;;;;;;5011783;28;20053;-81
2023/05/21 15:45:43;;;;;;;;;;;29.30;50.50;;;;;;4993556;28;19913;-81
2023/05/21 15:48:11;;;;;;;;;;;30.00;50.80;;;;;;4993415;28;19917;-80
2023/05/21 15:50:36;;;;;;;;;;;30.40;49.80;;;;;;4993581;28;19917;-81
2023/05/21 15:53:02;;;;;;;;;;;30.80;47.50;;;;;;4993776;28;20281;-81
2023/05/21 15:55:30;;;;;;;;;;;31.00;48.00;;;;;;4993571;28;20320;-80
2023/05/21 15:57:56;;;;;;;;;;;31.50;47.20;;;;;;4993452;28;19921;-82
2023/05/21 16:00:21;;;;;;;;;;;31.20;47.30;;;;;;5000048;28;19925;-80
2023/05/21 16:02:47;;;;;;;;;;;31.10;46.90;;;;;;4994871;28;19913;-81
2023/05/21 16:05:13;;;;;;;;;;;31.00;47.30;;;;;;4993366;28;19906;-81
2023/05/21 16:07:38;;;;;;;;;;;30.70;47.40;;;;;;4995593;28;19910;-81
2023/05/21 16:10:04;;;;;;;;;;;30.80;48.00;;;;;;4992709;28;20404;-79
2023/05/21 16:12:30;;;;;;;;;;;30.60;49.20;;;;;;4994078;28;20079;-82
2023/05/21 16:14:55;;;;;;;;;;;30.60;50.60;;;;;;5001160;28;20132;-80
2023/05/21 16:17:21;;;;;;;;;;;30.20;51.40;;;;;;5004432;28;19901;-82
2023/05/21 16:19:46;;;;;;;;;;;28.90;56.20;;;;;;4999786;28;19912;-81
2023/05/21 16:22:12;;;;;;;;;;;28.80;56.80;;;;;;5001753;28;19936;-84
2023/05/21 16:24:37;;;;;;;;;;;28.30;59.20;;;;;;5003584;28;20224;-82
2023/05/21 16:27:03;;;;;;;;;;;28.00;59.80;;;;;;4998390;28;19913;-81
2023/05/21 16:29:29;;;;;;;;;;;27.30;60.90;;;;;;5007117;28;19968;-81
2023/05/21 16:31:57;;;;;;;;;;;26.90;62.40;;;;;;4996719;28;20079;-84
2023/05/21 16:34:22;;;;;;;;;;;26.80;62.90;;;;;;4995751;28;19905;-82
2023/05/21 16:36:50;;;;;;;;;;;29.00;64.70;;;;;;5002810;28;19920;-81
2023/05/21 16:39:15;;;;;;;;;;;26.20;63.00;;;;;;4997292;28;20379;-78
2023/05/21 16:41:42;;;;;;;;;;;26.10;62.70;;;;;;5011044;28;19913;-84
2023/05/21 16:44:07;;;;;;;;;;;26.50;62.70;;;;;;5012270;28;19994;-76